sensor_id;sensor_type;location;lat;lon;timestamp;pressure;altitude;pressure_sealevel;temperature;humidity
49947;BME280;35839;48.662;13.300;2024-02-21T00:00:41;98386.63;;;6.53;100.00
49947;BME280;35839;48.662;13.300;2024-02-21T00:03:06;98383.06;;;6.81;100.00
49947;BME280;35839;48.662;13.300;2024-02-21T00:05:32;98374.72;;;6.89;100.00
49947;BME280;35839;48.662;13.300;2024-02-21T00:07:59;98375.50;;;6.64;100.00
49947;BME280;35839;48.662;13.300;2024-02-21T00:10:24;98368.66;;;6.75;100.00
49947;BME280;35839;48.662;13.300;2024-02-21T00:12:50;98354.91;;;6.73;100.00
49947;BME280;35839;48.662;13.300;2024-02-21T00:15:16;98370.56;;;6.99;100.00
49947;BME280;35839;48.662;13.300;2024-02-21T00:17:43;98365.25;;;7.01;100.00
49947;BME280;35839;48.662;13.300;2024-02-21T00:20:09;98362.03;;;6.97;100.00
49947;BME280;35839;48.662;13.300;2024-02-21T00:22:35;98358.13;;;6.64;100.00
49947;BME280;35839;48.662;13.300;2024-02-21T00:25:01;98361.66;;;6.63;100.00
49947;BME280;35839;48.662;13.300;2024-02-21T00:27:26;98359.50;;;6.70;100.00
49947;BME280;35839;48.662;13.300;2024-02-21T00:29:51;98360.13;;;6.33;100.00
49947;BME280;35839;48.662;13.300;2024-02-21T00:32:17;98356.75;;;6.46;100.00
49947;BME280;35839;48.662;13.300;2024-02-21T00:34:42;98355.88;;;6.32;100.00
49947;BME280;35839;48.662;13.300;2024-02-21T00:37:07;98356.66;;;6.60;100.00
49947;BME280;35839;48.662;13.300;2024-02-21T00:39:33;98356.25;;;6.53;100.00
49947;BME280;35839;48.662;13.300;2024-02-21T00:41:58;98349.59;;;6.62;100.00
49947;BME280;35839;48.662;13.300;2024-02-21T00:44:24;98359.66;;;6.41;100.00
49947;BME280;35839;48.662;13.300;2024-02-21T00:46:49;98350.69;;;6.45;100.00
49947;BME280;35839;48.662;13.300;2024-02-21T00:49:14;98340.72;;;6.52;100.00
49947;BME280;35839;48.662;13.300;2024-02-21T00:51:40;98356.75;;;6.46;100.00
49947;BME280;35839;48.662;13.300;2024-02-21T00:54:05;98356.25;;;6.66;100.00
49947;BME280;35839;48.662;13.300;2024-02-21T00:56:31;98350.38;;;6.50;100.00
49947;BME280;35839;48.662;13.300;2024-02-21T00:58:56;98343.69;;;6.33;100.00
49947;BME280;35839;48.662;13.300;2024-02-21T01:01:23;98347.34;;;6.43;100.00
49947;BME280;35839;48.662;13.300;2024-02-21T01:03:49;98341.38;;;6.56;100.00
49947;BME280;35839;48.662;13.300;2024-02-21T01:06:15;98342.44;;;7.17;100.00
49947;BME280;35839;48.662;13.300;2024-02-21T01:08:40;98333.59;;;7.07;100.00
49947;BME280;35839;48.662;13.300;2024-02-21T01:11:05;98343.66;;;6.73;100.00
49947;BME280;35839;48.662;13.300;2024-02-21T01:13:31;98323.44;;;6.64;100.00
49947;BME280;35839;48.662;13.300;2024-02-21T01:15:56;98329.09;;;6.70;100.00
49947;BME280;35839;48.662;13.300;2024-02-21T01:18:21;98331.03;;;6.54;100.00
49947;BME280;35839;48.662;13.300;2024-02-21T01:20:47;98326.16;;;6.49;100.00
49947;BME280;35839;48.662;13.300;2024-02-21T01:23:12;98323.03;;;6.57;100.00
49947;BME280;35839;48.662;13.300;2024-02-21T01:25:37;98317.91;;;6.43;100.00
49947;BME280;35839;48.662;13.300;2024-02-21T01:28:03;98303.72;;;6.21;100.00
49947;BME280;35839;48.662;13.300;2024-02-21T01:30:28;98312.91;;;6.00;100.00
49947;BME280;35839;48.662;13.300;2024-02-21T01:32:54;98315.00;;;6.07;100.00
49947;BME280;35839;48.662;13.300;2024-02-21T01:35:19;98301.50;;;5.88;100.00
49947;BME280;35839;48.662;13.300;2024-02-21T01:37:44;98304.72;;;5.91;100.00
49947;BME280;35839;48.662;13.300;2024-02-21T01:40:10;98307.16;;;5.80;100.00
49947;BME280;35839;48.662;13.300;2024-02-21T01:42:39;98309.91;;;5.91;100.00
49947;BME280;35839;48.662;13.300;2024-02-21T01:45:06;98308.47;;;5.87;100.00
49947;BME280;35839;48.662;13.300;2024-02-21T01:47:31;98297.84;;;5.63;100.00
49947;BME280;35839;48.662;13.300;2024-02-21T01:49:56;98294.06;;;5.96;100.00
49947;BME280;35839;48.662;13.300;2024-02-21T01:52:22;98289.97;;;6.19;100.00
49947;BME280;35839;48.662;13.300;2024-02-21T01:54:48;98280.34;;;5.80;100.00
49947;BME280;35839;48.662;13.300;2024-02-21T01:57:14;98291.78;;;5.77;100.00
49947;BME280;35839;48.662;13.300;2024-02-21T01:59:40;98287.47;;;5.90;100.00
49947;BME280;35839;48.662;13.300;2024-02-21T02:02:05;98276.09;;;5.79;100.00
49947;BME280;35839;48.662;13.300;2024-02-21T02:04:31;98277.53;;;5.97;100.00
49947;BME280;35839;48.662;13.300;2024-02-21T02:06:57;98277.63;;;5.96;100.00
49947;BME280;35839;48.662;13.300;2024-02-21T02:09:25;98285.50;;;6.08;100.00
49947;BME280;35839;48.662;13.300;2024-02-21T02:11:50;98279.34;;;6.22;100.00
49947;BME280;35839;48.662;13.300;2024-02-21T02:14:16;98269.91;;;6.21;100.00
49947;BME280;35839;48.662;13.300;2024-02-21T02:16:41;98267.38;;;6.20;100.00
49947;BME280;35839;48.662;13.300;2024-02-21T02:19:07;98270.41;;;5.86;100.00
49947;BME280;35839;48.662;13.300;2024-02-21T02:21:34;98267.38;;;6.20;100.00
49947;BME280;35839;48.662;13.300;2024-02-21T02:24:03;98263.66;;;6.24;100.00
49947;BME280;35839;48.662;13.300;2024-02-21T02:26:29;98251.38;;;6.13;100.00
49947;BME280;35839;48.662;13.300;2024-02-21T02:28:54;98256.50;;;6.40;100.00
49947;BME280;35839;48.662;13.300;2024-02-21T02:31:20;98257.06;;;6.58;100.00
49947;BME280;35839;48.662;13.300;2024-02-21T02:33:45;98253.03;;;6.14;100.00
49947;BME280;35839;48.662;13.300;2024-02-21T02:36:10;98260.66;;;5.90;100.00
49947;BME280;35839;48.662;13.300;2024-02-21T02:38:36;98253.13;;;5.58;100.00
49947;BME280;35839;48.662;13.300;2024-02-21T02:41:02;98249.34;;;5.49;100.00
49947;BME280;35839;48.662;13.300;2024-02-21T02:43:27;98252.03;;;5.62;100.00
49947;BME280;35839;48.662;13.300;2024-02-21T02:45:53;98249.13;;;5.67;100.00
49947;BME280;35839;48.662;13.300;2024-02-21T02:48:18;98240.63;;;5.78;100.00
49947;BME280;35839;48.662;13.300;2024-02-21T02:50:45;98235.19;;;5.68;100.00
49947;BME280;35839;48.662;13.300;2024-02-21T02:53:11;98238.03;;;5.78;100.00
49947;BME280;35839;48.662;13.300;2024-02-21T02:55:36;98233.09;;;5.87;100.00
49947;BME280;35839;48.662;13.300;2024-02-21T02:58:01;98232.00;;;6.04;100.00
49947;BME280;35839;48.662;13.300;2024-02-21T03:00:27;98232.84;;;6.05;100.00
49947;BME280;35839;48.662;13.300;2024-02-21T03:02:52;98228.81;;;6.14;100.00
49947;BME280;35839;48.662;13.300;2024-02-21T03:05:21;98224.75;;;6.09;100.00
49947;BME280;35839;48.662;13.300;2024-02-21T03:07:48;98215.50;;;6.18;100.00
49947;BME280;35839;48.662;13.300;2024-02-21T03:10:14;98225.38;;;6.13;100.00
49947;BME280;35839;48.662;13.300;2024-02-21T03:12:41;98218.13;;;6.44;100.00
49947;BME280;35839;48.662;13.300;2024-02-21T03:15:07;98217.25;;;6.05;100.00
49947;BME280;35839;48.662;13.300;2024-02-21T03:17:33;98211.50;;;6.00;100.00
49947;BME280;35839;48.662;13.300;2024-02-21T03:20:03;98211.00;;;5.95;100.00
49947;BME280;35839;48.662;13.300;2024-02-21T03:22:34;98217.78;;;5.83;100.00
49947;BME280;35839;48.662;13.300;2024-02-21T03:24:59;98218.69;;;5.69;100.00
49947;BME280;35839;48.662;13.300;2024-02-21T03:27:25;98214.59;;;5.65;100.00
49947;BME280;35839;48.662;13.300;2024-02-21T03:29:50;98214.53;;;5.79;100.00
49947;BME280;35839;48.662;13.300;2024-02-21T03:32:16;98211.84;;;5.81;100.00
49947;BME280;35839;48.662;13.300;2024-02-21T03:34:41;98204.50;;;5.87;100.00
49947;BME280;35839;48.662;13.300;2024-02-21T03:37:06;98211.13;;;5.91;100.00
49947;BME280;35839;48.662;13.300;2024-02-21T03:39:32;98191.34;;;6.03;100.00
49947;BME280;35839;48.662;13.300;2024-02-21T03:41:58;98214.56;;;6.06;100.00
49947;BME280;35839;48.662;13.300;2024-02-21T03:44:25;98204.56;;;6.26;100.00
49947;BME280;35839;48.662;13.300;2024-02-21T03:46:51;98213.00;;;5.89;100.00
49947;BME280;35839;48.662;13.300;2024-02-21T03:49:16;98200.50;;;6.09;100.00
49947;BME280;35839;48.662;13.300;2024-02-21T03:51:41;98207.56;;;6.20;100.00
49947;BME280;35839;48.662;13.300;2024-02-21T03:54:07;98215.97;;;5.98;100.00
49947;BME280;35839;48.662;13.300;2024-02-21T03:56:37;98214.34;;;5.82;100.00
49947;BME280;35839;48.662;13.300;2024-02-21T03:59:02;98218.78;;;5.80;100.00
49947;BME280;35839;48.662;13.300;2024-02-21T04:01:27;98221.75;;;5.88;100.00
49947;BME280;35839;48.662;13.300;2024-02-21T04:03:53;98208.75;;;5.61;100.00
49947;BME280;35839;48.662;13.300;2024-02-21T04:06:19;98215.22;;;5.68;100.00
49947;BME280;35839;48.662;13.300;2024-02-21T04:08:45;98217.06;;;5.94;100.00
49947;BME280;35839;48.662;13.300;2024-02-21T04:11:10;98212.25;;;5.75;100.00
49947;BME280;35839;48.662;13.300;2024-02-21T04:13:35;98204.06;;;5.94;100.00
49947;BME280;35839;48.662;13.300;2024-02-21T04:16:01;98198.00;;;5.80;100.00
49947;BME280;35839;48.662;13.300;2024-02-21T04:18:26;98195.19;;;6.10;100.00
49947;BME280;35839;48.662;13.300;2024-02-21T04:20:52;98198.34;;;5.88;100.00
49947;BME280;35839;48.662;13.300;2024-02-21T04:23:17;98197.38;;;6.17;100.00
49947;BME280;35839;48.662;13.300;2024-02-21T04:25:43;98202.31;;;6.34;100.00
49947;BME280;35839;48.662;13.300;2024-02-21T04:28:08;98199.63;;;5.68;100.00
49947;BME280;35839;48.662;13.300;2024-02-21T04:30:34;98184.41;;;5.49;100.00
49947;BME280;35839;48.662;13.300;2024-02-21T04:33:00;98185.56;;;5.85;100.00
49947;BME280;35839;48.662;13.300;2024-02-21T04:35:25;98186.56;;;5.70;100.00
49947;BME280;35839;48.662;13.300;2024-02-21T04:37:51;98179.78;;;5.95;100.00
49947;BME280;35839;48.662;13.300;2024-02-21T04:40:16;98181.44;;;5.96;100.00
49947;BME280;35839;48.662;13.300;2024-02-21T04:42:42;98192.31;;;5.48;100.00
49947;BME280;35839;48.662;13.300;2024-02-21T04:45:08;98190.53;;;5.21;100.00
49947;BME280;35839;48.662;13.300;2024-02-21T04:47:33;98188.28;;;5.57;100.00
49947;BME280;35839;48.662;13.300;2024-02-21T04:49:59;98178.75;;;5.97;100.00
49947;BME280;35839;48.662;13.300;2024-02-21T04:52:25;98184.16;;;5.67;100.00
49947;BME280;35839;48.662;13.300;2024-02-21T04:54:50;98182.84;;;5.87;100.00
49947;BME280;35839;48.662;13.300;2024-02-21T04:57:17;98186.25;;;6.02;100.00
49947;BME280;35839;48.662;13.300;2024-02-21T04:59:45;98184.59;;;6.14;100.00
49947;BME280;35839;48.662;13.300;2024-02-21T05:02:12;98158.78;;;5.98;100.00
49947;BME280;35839;48.662;13.300;2024-02-21T05:04:38;98170.78;;;6.13;100.00
49947;BME280;35839;48.662;13.300;2024-02-21T05:07:04;98175.84;;;6.02;100.00
49947;BME280;35839;48.662;13.300;2024-02-21T05:09:30;98177.28;;;6.06;100.00
49947;BME280;35839;48.662;13.300;2024-02-21T05:11:56;98171.91;;;6.09;100.00
49947;BME280;35839;48.662;13.300;2024-02-21T05:14:21;98167.91;;;5.90;100.00
49947;BME280;35839;48.662;13.300;2024-02-21T05:16:46;98165.78;;;6.36;100.00
49947;BME280;35839;48.662;13.300;2024-02-21T05:19:12;98158.50;;;6.28;100.00
49947;BME280;35839;48.662;13.300;2024-02-21T05:21:37;98155.47;;;6.21;100.00
49947;BME280;35839;48.662;13.300;2024-02-21T05:24:03;98148.28;;;6.12;100.00
49947;BME280;35839;48.662;13.300;2024-02-21T05:26:28;98153.38;;;6.52;100.00
49947;BME280;35839;48.662;13.300;2024-02-21T05:28:54;98155.69;;;6.31;100.00
49947;BME280;35839;48.662;13.300;2024-02-21T05:31:20;98147.44;;;6.24;100.00
49947;BME280;35839;48.662;13.300;2024-02-21T05:33:46;98154.84;;;6.30;100.00
49947;BME280;35839;48.662;13.300;2024-02-21T05:36:12;98153.81;;;6.07;100.00
49947;BME280;35839;48.662;13.300;2024-02-21T05:38:38;98145.78;;;6.10;100.00
49947;BME280;35839;48.662;13.300;2024-02-21T05:41:03;98142.56;;;6.20;100.00
49947;BME280;35839;48.662;13.300;2024-02-21T05:43:29;98140.91;;;6.19;100.00
49947;BME280;35839;48.662;13.300;2024-02-21T05:45:54;98141.13;;;6.28;100.00
49947;BME280;35839;48.662;13.300;2024-02-21T05:48:20;98128.31;;;6.25;100.00
49947;BME280;35839;48.662;13.300;2024-02-21T05:50:45;98129.66;;;6.44;100.00
49947;BME280;35839;48.662;13.300;2024-02-21T05:53:10;98127.38;;;6.01;100.00
49947;BME280;35839;48.662;13.300;2024-02-21T05:55:36;98135.91;;;6.03;100.00
49947;BME280;35839;48.662;13.300;2024-02-21T05:58:03;98135.59;;;6.46;100.00
49947;BME280;35839;48.662;13.300;2024-02-21T06:00:28;98125.00;;;6.86;100.00
49947;BME280;35839;48.662;13.300;2024-02-21T06:02:54;98128.13;;;6.28;100.00
49947;BME280;35839;48.662;13.300;2024-02-21T06:05:20;98125.94;;;6.35;100.00
49947;BME280;35839;48.662;13.300;2024-02-21T06:07:45;98125.09;;;6.09;100.00
49947;BME280;35839;48.662;13.300;2024-02-21T06:10:11;98125.91;;;5.97;100.00
49947;BME280;35839;48.662;13.300;2024-02-21T06:12:36;98128.00;;;5.52;100.00
49947;BME280;35839;48.662;13.300;2024-02-21T06:15:02;98130.44;;;5.80;100.00
49947;BME280;35839;48.662;13.300;2024-02-21T06:17:27;98132.25;;;5.93;100.00
49947;BME280;35839;48.662;13.300;2024-02-21T06:19:54;98132.69;;;6.12;100.00
49947;BME280;35839;48.662;13.300;2024-02-21T06:22:21;98127.38;;;6.01;100.00
49947;BME280;35839;48.662;13.300;2024-02-21T06:24:46;98128.56;;;5.82;100.00
49947;BME280;35839;48.662;13.300;2024-02-21T06:27:11;98124.22;;;5.83;100.00
49947;BME280;35839;48.662;13.300;2024-02-21T06:29:37;98119.28;;;6.18;100.00
49947;BME280;35839;48.662;13.300;2024-02-21T06:32:03;98126.03;;;6.08;100.00
49947;BME280;35839;48.662;13.300;2024-02-21T06:34:28;98122.00;;;6.04;100.00
49947;BME280;35839;48.662;13.300;2024-02-21T06:36:54;98117.63;;;6.04;100.00
49947;BME280;35839;48.662;13.300;2024-02-21T06:39:19;98119.16;;;6.07;100.00
49947;BME280;35839;48.662;13.300;2024-02-21T06:41:45;98114.19;;;6.04;100.00
49947;BME280;35839;48.662;13.300;2024-02-21T06:44:10;98116.56;;;6.07;100.00
49947;BME280;35839;48.662;13.300;2024-02-21T06:46:35;98124.25;;;6.21;100.00
49947;BME280;35839;48.662;13.300;2024-02-21T06:49:02;98126.44;;;6.15;100.00
49947;BME280;35839;48.662;13.300;2024-02-21T06:51:30;98113.97;;;6.07;100.00
49947;BME280;35839;48.662;13.300;2024-02-21T06:53:55;98122.50;;;6.09;100.00
49947;BME280;35839;48.662;13.300;2024-02-21T06:56:23;98116.97;;;6.26;100.00
49947;BME280;35839;48.662;13.300;2024-02-21T06:58:54;98111.97;;;6.49;100.00
49947;BME280;35839;48.662;13.300;2024-02-21T07:01:20;98116.66;;;6.44;100.00
49947;BME280;35839;48.662;13.300;2024-02-21T07:03:45;98117.28;;;6.22;100.00
49947;BME280;35839;48.662;13.300;2024-02-21T07:06:10;98114.28;;;6.28;100.00
49947;BME280;35839;48.662;13.300;2024-02-21T07:08:36;98117.81;;;6.40;100.00
49947;BME280;35839;48.662;13.300;2024-02-21T07:11:01;98113.31;;;6.54;100.00
49947;BME280;35839;48.662;13.300;2024-02-21T07:13:26;98119.81;;;6.73;100.00
49947;BME280;35839;48.662;13.300;2024-02-21T07:15:52;98112.38;;;6.56;100.00
49947;BME280;35839;48.662;13.300;2024-02-21T07:18:17;98117.41;;;6.83;100.00
49947;BME280;35839;48.662;13.300;2024-02-21T07:20:43;98110.16;;;6.99;100.00
49947;BME280;35839;48.662;13.300;2024-02-21T07:23:08;98120.44;;;7.13;100.00
49947;BME280;35839;48.662;13.300;2024-02-21T07:25:34;98122.09;;;6.78;100.00
49947;BME280;35839;48.662;13.300;2024-02-21T07:27:59;98110.81;;;6.40;100.00
49947;BME280;35839;48.662;13.300;2024-02-21T07:30:25;98103.47;;;6.71;100.00
49947;BME280;35839;48.662;13.300;2024-02-21T07:32:50;98106.41;;;7.03;100.00
49947;BME280;35839;48.662;13.300;2024-02-21T07:35:17;98101.56;;;7.23;100.00
49947;BME280;35839;48.662;13.300;2024-02-21T07:37:42;98115.13;;;7.39;100.00
49947;BME280;35839;48.662;13.300;2024-02-21T07:40:15;98109.69;;;7.42;100.00
49947;BME280;35839;48.662;13.300;2024-02-21T07:42:41;98120.59;;;7.82;100.00
49947;BME280;35839;48.662;13.300;2024-02-21T07:45:10;98123.81;;;8.09;100.00
49947;BME280;35839;48.662;13.300;2024-02-21T07:47:36;98125.03;;;8.05;100.00
49947;BME280;35839;48.662;13.300;2024-02-21T07:50:05;98119.16;;;8.48;100.00
49947;BME280;35839;48.662;13.300;2024-02-21T07:52:31;98114.66;;;8.61;100.00
49947;BME280;35839;48.662;13.300;2024-02-21T07:54:56;98107.84;;;8.24;100.00
49947;BME280;35839;48.662;13.300;2024-02-21T07:57:21;98107.94;;;8.00;100.00
49947;BME280;35839;48.662;13.300;2024-02-21T07:59:47;98105.75;;;7.72;100.00
49947;BME280;35839;48.662;13.300;2024-02-21T08:02:14;98103.19;;;7.94;100.00
49947;BME280;35839;48.662;13.300;2024-02-21T08:04:39;98103.91;;;8.08;100.00
49947;BME280;35839;48.662;13.300;2024-02-21T08:07:04;98098.25;;;8.14;100.00
49947;BME280;35839;48.662;13.300;2024-02-21T08:09:30;98102.84;;;8.10;100.00
49947;BME280;35839;48.662;13.300;2024-02-21T08:11:55;98101.56;;;8.38;100.00
49947;BME280;35839;48.662;13.300;2024-02-21T08:14:21;98088.66;;;8.37;100.00
49947;BME280;35839;48.662;13.300;2024-02-21T08:16:48;98094.91;;;8.34;100.00
49947;BME280;35839;48.662;13.300;2024-02-21T08:19:14;98102.44;;;8.50;100.00
49947;BME280;35839;48.662;13.300;2024-02-21T08:21:39;98092.44;;;8.55;100.00
49947;BME280;35839;48.662;13.300;2024-02-21T08:24:05;98090.19;;;8.73;100.00
49947;BME280;35839;48.662;13.300;2024-02-21T08:26:30;98087.84;;;8.59;100.00
49947;BME280;35839;48.662;13.300;2024-02-21T08:28:56;98091.84;;;8.29;100.00
49947;BME280;35839;48.662;13.300;2024-02-21T08:31:28;98084.88;;;8.52;100.00
49947;BME280;35839;48.662;13.300;2024-02-21T08:34:00;98081.66;;;8.60;100.00
49947;BME280;35839;48.662;13.300;2024-02-21T08:36:38;98055.09;;;8.55;100.00
49947;BME280;35839;48.662;13.300;2024-02-21T08:39:04;98061.63;;;9.04;100.00
49947;BME280;35839;48.662;13.300;2024-02-21T08:41:33;98061.06;;;9.00;100.00
49947;BME280;35839;48.662;13.300;2024-02-21T08:44:03;98048.13;;;8.88;100.00
49947;BME280;35839;48.662;13.300;2024-02-21T08:46:28;98044.03;;;9.06;100.00
49947;BME280;35839;48.662;13.300;2024-02-21T08:48:54;98040.22;;;9.42;100.00
49947;BME280;35839;48.662;13.300;2024-02-21T08:51:20;98041.88;;;9.11;100.00
49947;BME280;35839;48.662;13.300;2024-02-21T08:53:46;98033.78;;;9.25;100.00
49947;BME280;35839;48.662;13.300;2024-02-21T08:56:11;98034.91;;;8.57;100.00
49947;BME280;35839;48.662;13.300;2024-02-21T08:58:38;98038.22;;;8.59;100.00
49947;BME280;35839;48.662;13.300;2024-02-21T09:01:04;98042.63;;;8.58;100.00
49947;BME280;35839;48.662;13.300;2024-02-21T09:03:33;98033.94;;;9.13;100.00
49947;BME280;35839;48.662;13.300;2024-02-21T09:05:59;98033.25;;;9.32;100.00
49947;BME280;35839;48.662;13.300;2024-02-21T09:08:26;98026.69;;;9.37;100.00
49947;BME280;35839;48.662;13.300;2024-02-21T09:10:51;98040.84;;;9.35;100.00
49947;BME280;35839;48.662;13.300;2024-02-21T09:13:17;98038.06;;;8.83;100.00
49947;BME280;35839;48.662;13.300;2024-02-21T09:15:42;98037.81;;;9.18;100.00
49947;BME280;35839;48.662;13.300;2024-02-21T09:18:08;98033.13;;;9.54;100.00
49947;BME280;35839;48.662;13.300;2024-02-21T09:20:33;98023.38;;;9.14;100.00
49947;BME280;35839;48.662;13.300;2024-02-21T09:22:59;98033.88;;;9.24;100.00
49947;BME280;35839;48.662;13.300;2024-02-21T09:25:26;98031.94;;;9.37;100.00
49947;BME280;35839;48.662;13.300;2024-02-21T09:27:53;98032.44;;;8.99;100.00
49947;BME280;35839;48.662;13.300;2024-02-21T09:30:18;98034.44;;;8.29;100.00
49947;BME280;35839;48.662;13.300;2024-02-21T09:32:44;98037.44;;;8.47;100.00
49947;BME280;35839;48.662;13.300;2024-02-21T09:35:09;98039.22;;;8.90;100.00
49947;BME280;35839;48.662;13.300;2024-02-21T09:37:35;98037.50;;;8.68;100.00
49947;BME280;35839;48.662;13.300;2024-02-21T09:40:01;98044.06;;;8.95;100.00
49947;BME280;35839;48.662;13.300;2024-02-21T09:42:37;98048.84;;;8.90;100.00
49947;BME280;35839;48.662;13.300;2024-02-21T09:45:07;98032.91;;;8.60;100.00
49947;BME280;35839;48.662;13.300;2024-02-21T09:50:47;98019.78;;;8.83;100.00
49947;BME280;35839;48.662;13.300;2024-02-21T09:53:12;98019.38;;;8.99;100.00
49947;BME280;35839;48.662;13.300;2024-02-21T09:55:43;98017.16;;;8.83;100.00
49947;BME280;35839;48.662;13.300;2024-02-21T09:58:10;98016.03;;;8.97;100.00
49947;BME280;35839;48.662;13.300;2024-02-21T10:00:36;97990.22;;;9.15;100.00
49947;BME280;35839;48.662;13.300;2024-02-21T10:03:02;97992.81;;;8.94;100.00
49947;BME280;35839;48.662;13.300;2024-02-21T10:05:34;97982.53;;;9.65;100.00
49947;BME280;35839;48.662;13.300;2024-02-21T10:08:01;97998.56;;;9.29;100.00
49947;BME280;35839;48.662;13.300;2024-02-21T10:10:26;97994.34;;;8.96;100.00
49947;BME280;35839;48.662;13.300;2024-02-21T10:12:53;97994.56;;;9.04;100.00
49947;BME280;35839;48.662;13.300;2024-02-21T10:15:22;97999.25;;;9.11;100.00
49947;BME280;35839;48.662;13.300;2024-02-21T10:17:58;98000.47;;;9.48;100.00
49947;BME280;35839;48.662;13.300;2024-02-21T10:20:25;97990.84;;;9.70;100.00
49947;BME280;35839;48.662;13.300;2024-02-21T10:23:00;97990.06;;;9.79;100.00
49947;BME280;35839;48.662;13.300;2024-02-21T10:25:27;97985.81;;;9.36;100.00
49947;BME280;35839;48.662;13.300;2024-02-21T10:27:53;97970.41;;;9.54;100.00
49947;BME280;35839;48.662;13.300;2024-02-21T10:30:18;97963.50;;;9.53;100.00
49947;BME280;35839;48.662;13.300;2024-02-21T10:32:51;97962.72;;;9.62;100.00
49947;BME280;35839;48.662;13.300;2024-02-21T10:35:41;97966.81;;;9.34;100.00
49947;BME280;35839;48.662;13.300;2024-02-21T10:38:06;97957.50;;;9.93;100.00
49947;BME280;35839;48.662;13.300;2024-02-21T10:40:32;97964.16;;;10.47;100.00
49947;BME280;35839;48.662;13.300;2024-02-21T10:42:59;97961.41;;;9.47;100.00
49947;BME280;35839;48.662;13.300;2024-02-21T10:45:35;97954.13;;;9.50;100.00
49947;BME280;35839;48.662;13.300;2024-02-21T10:50:53;97941.50;;;10.27;100.00
49947;BME280;35839;48.662;13.300;2024-02-21T10:56:28;97934.56;;;10.16;97.99
49947;BME280;35839;48.662;13.300;2024-02-21T10:58:54;97931.81;;;10.18;99.69
49947;BME280;35839;48.662;13.300;2024-02-21T11:01:22;97922.78;;;10.31;96.52
49947;BME280;35839;48.662;13.300;2024-02-21T11:03:51;97910.00;;;10.58;98.97
49947;BME280;35839;48.662;13.300;2024-02-21T11:06:17;97917.19;;;10.05;97.40
49947;BME280;35839;48.662;13.300;2024-02-21T11:08:45;97910.28;;;10.04;97.81
49947;BME280;35839;48.662;13.300;2024-02-21T11:11:13;97908.38;;;10.47;94.62
49947;BME280;35839;48.662;13.300;2024-02-21T11:13:42;97902.91;;;10.09;95.57
49947;BME280;35839;48.662;13.300;2024-02-21T11:16:12;97905.75;;;10.57;94.17
49947;BME280;35839;48.662;13.300;2024-02-21T11:18:47;97897.59;;;10.60;94.28
49947;BME280;35839;48.662;13.300;2024-02-21T11:21:12;97893.34;;;10.78;93.12
49947;BME280;35839;48.662;13.300;2024-02-21T11:23:37;97887.13;;;10.99;92.72
49947;BME280;35839;48.662;13.300;2024-02-21T11:26:10;97875.25;;;10.94;90.36
49947;BME280;35839;48.662;13.300;2024-02-21T11:28:44;97874.28;;;10.95;89.39
49947;BME280;35839;48.662;13.300;2024-02-21T11:31:13;97861.19;;;10.95;87.58
49947;BME280;35839;48.662;13.300;2024-02-21T11:33:43;97857.59;;;11.44;89.95
49947;BME280;35839;48.662;13.300;2024-02-21T11:36:23;97859.44;;;10.57;91.61
49947;BME280;35839;48.662;13.300;2024-02-21T11:38:49;97856.13;;;10.45;88.32
49947;BME280;35839;48.662;13.300;2024-02-21T11:41:16;97851.38;;;11.07;85.03
49947;BME280;35839;48.662;13.300;2024-02-21T11:43:41;97844.28;;;11.27;89.97
49947;BME280;35839;48.662;13.300;2024-02-21T11:46:06;97848.13;;;10.66;87.61
49947;BME280;35839;48.662;13.300;2024-02-21T11:48:32;97835.63;;;11.17;85.91
49947;BME280;35839;48.662;13.300;2024-02-21T11:50:57;97829.91;;;11.31;83.68
49947;BME280;35839;48.662;13.300;2024-02-21T11:53:23;97827.91;;;11.15;85.76
49947;BME280;35839;48.662;13.300;2024-02-21T11:55:49;97823.09;;;11.48;85.63
49947;BME280;35839;48.662;13.300;2024-02-21T11:58:15;97815.34;;;11.19;84.77
49947;BME280;35839;48.662;13.300;2024-02-21T12:00:41;97816.06;;;11.02;87.18
49947;BME280;35839;48.662;13.300;2024-02-21T12:03:07;97800.25;;;11.31;84.68
49947;BME280;35839;48.662;13.300;2024-02-21T12:05:33;97788.19;;;11.10;81.39
49947;BME280;35839;48.662;13.300;2024-02-21T12:07:58;97783.72;;;11.21;82.47
49947;BME280;35839;48.662;13.300;2024-02-21T12:10:25;97783.63;;;11.50;80.40
49947;BME280;35839;48.662;13.300;2024-02-21T12:13:05;97768.81;;;11.76;78.69
49947;BME280;35839;48.662;13.300;2024-02-21T12:15:31;97776.25;;;11.26;82.79
49947;BME280;35839;48.662;13.300;2024-02-21T12:17:57;97765.72;;;11.63;76.34
49947;BME280;35839;48.662;13.300;2024-02-21T12:20:22;97765.25;;;11.22;83.76
49947;BME280;35839;48.662;13.300;2024-02-21T12:22:49;97761.28;;;11.46;78.24
49947;BME280;35839;48.662;13.300;2024-02-21T12:25:16;97748.13;;;11.73;73.04
49947;BME280;35839;48.662;13.300;2024-02-21T12:27:45;97750.78;;;12.27;71.73
49947;BME280;35839;48.662;13.300;2024-02-21T12:30:11;97734.25;;;12.53;72.42
49947;BME280;35839;48.662;13.300;2024-02-21T12:32:36;97729.38;;;11.86;81.53
49947;BME280;35839;48.662;13.300;2024-02-21T12:35:02;97737.97;;;12.06;72.42
49947;BME280;35839;48.662;13.300;2024-02-21T12:37:28;97734.91;;;11.65;84.87
49947;BME280;35839;48.662;13.300;2024-02-21T12:39:54;97715.63;;;11.84;78.50
49947;BME280;35839;48.662;13.300;2024-02-21T12:42:19;97715.50;;;12.48;72.09
49947;BME280;35839;48.662;13.300;2024-02-21T12:44:44;97721.09;;;12.27;77.73
49947;BME280;35839;48.662;13.300;2024-02-21T12:47:11;97706.19;;;12.35;74.71
49947;BME280;35839;48.662;13.300;2024-02-21T12:49:37;97710.28;;;12.12;79.35
49947;BME280;35839;48.662;13.300;2024-02-21T12:52:02;97698.91;;;12.73;76.09
49947;BME280;35839;48.662;13.300;2024-02-21T12:54:28;97701.31;;;12.93;73.57